createdAt,value
2022-08-22T00:01:14.738Z,18.64
2022-08-22T00:03:10.808Z,20.96
2022-08-22T00:04:00.768Z,18.63
2022-08-22T00:06:45.792Z,18.69
2022-08-22T00:09:29.292Z,18.66
2022-08-22T00:12:06.239Z,18.75
2022-08-22T00:15:02.137Z,18.74
2022-08-22T00:17:52.730Z,18.52
2022-08-22T00:20:35.688Z,18.54
2022-08-22T00:23:18.033Z,18.56
2022-08-22T00:25:53.225Z,18.48
2022-08-22T00:28:28.189Z,18.54
2022-08-22T00:31:02.829Z,18.56
2022-08-22T00:33:41.611Z,18.51
2022-08-22T00:36:37.902Z,18.30
2022-08-22T00:39:26.354Z,18.44
2022-08-22T00:42:01.961Z,18.38
2022-08-22T00:44:58.407Z,18.30
2022-08-22T00:47:31.236Z,18.27
2022-08-22T00:50:25.039Z,18.21
2022-08-22T00:53:04.315Z,18.14
2022-08-22T00:56:02.828Z,18.28
2022-08-22T00:58:58.079Z,18.30
2022-08-22T01:01:38.513Z,18.26
2022-08-22T01:04:29.765Z,18.13
2022-08-22T01:07:13.984Z,18.02
2022-08-22T01:10:01.122Z,17.95
2022-08-22T01:12:47.533Z,18.02
2022-08-22T01:15:22.496Z,18.02
2022-08-22T01:17:59.920Z,18.02
2022-08-22T01:21:01.803Z,17.86
2022-08-22T01:24:05.213Z,17.84
2022-08-22T01:26:59.240Z,17.97
2022-08-22T01:29:51.713Z,17.99
2022-08-22T01:33:05.456Z,18.11
2022-08-22T01:35:49.418Z,17.93
2022-08-22T01:38:35.701Z,17.98
2022-08-22T01:41:31.767Z,18.00
2022-08-22T01:44:07.246Z,17.90
2022-08-22T01:46:47.269Z,17.88
2022-08-22T01:49:34.896Z,17.75
2022-08-22T01:52:36.742Z,17.79
2022-08-22T01:55:24.597Z,17.79
2022-08-22T01:58:01.141Z,17.81
2022-08-22T02:00:47.196Z,17.84
2022-08-22T02:03:25.112Z,17.59
2022-08-22T02:06:01.125Z,17.66
2022-08-22T02:08:46.384Z,17.65
2022-08-22T02:11:33.446Z,17.63
2022-08-22T02:14:36.602Z,17.60
2022-08-22T02:17:17.561Z,17.41
2022-08-22T02:19:57.194Z,17.36
2022-08-22T02:22:37.881Z,17.39
2022-08-22T02:25:21.344Z,17.39
2022-08-22T02:28:08.441Z,17.44
2022-08-22T02:30:49.807Z,17.44
2022-08-22T02:33:29.023Z,17.34
2022-08-22T02:36:02.551Z,17.39
2022-08-22T02:38:48.925Z,17.26
2022-08-22T02:41:40.898Z,17.21
2022-08-22T02:44:20.518Z,17.31
2022-08-22T02:46:55.449Z,17.31
2022-08-22T02:49:30.882Z,17.27
2022-08-22T02:52:07.032Z,17.23
2022-08-22T02:54:45.660Z,17.26
2022-08-22T02:57:22.620Z,17.11
2022-08-22T03:00:01.033Z,17.04
2022-08-22T03:03:02.873Z,16.92
2022-08-22T03:05:38.378Z,17.00
2022-08-22T03:08:12.971Z,16.97
2022-08-22T03:10:47.342Z,16.87
2022-08-22T03:13:26.088Z,16.90
2022-08-22T03:15:58.470Z,16.84
2022-08-22T03:18:44.908Z,16.91
2022-08-22T03:21:56.728Z,16.88
2022-08-22T03:24:42.213Z,16.93
2022-08-22T03:27:32.140Z,16.75
2022-08-22T03:30:10.533Z,16.74
2022-08-22T03:32:52.641Z,16.81
2022-08-22T03:35:32.323Z,16.69
2022-08-22T03:38:20.061Z,16.74
2022-08-22T03:41:05.309Z,16.81
2022-08-22T03:43:52.193Z,16.67
2022-08-22T03:46:33.894Z,16.65
2022-08-22T03:49:25.182Z,16.65
2022-08-22T03:52:10.306Z,16.71
2022-08-22T03:54:55.021Z,16.57
2022-08-22T03:57:24.385Z,16.60
2022-08-22T04:00:18.429Z,16.62
2022-08-22T04:03:23.942Z,16.50
2022-08-22T04:06:35.339Z,16.54
2022-08-22T04:09:26.458Z,16.45
2022-08-22T04:12:38.072Z,16.50
2022-08-22T04:15:19.927Z,16.37
2022-08-22T04:18:00.925Z,16.45
2022-08-22T04:20:44.933Z,16.54
2022-08-22T04:23:32.873Z,16.43
2022-08-22T04:26:12.413Z,16.48
2022-08-22T04:28:45.416Z,16.36
2022-08-22T04:31:14.507Z,16.44
2022-08-22T04:33:50.757Z,16.36
2022-08-22T04:36:31.065Z,16.31
2022-08-22T04:39:25.278Z,16.29
2022-08-22T04:42:11.151Z,16.37
2022-08-22T04:44:56.107Z,16.39
2022-08-22T04:47:54.325Z,16.30
2022-08-22T04:50:39.979Z,16.37
2022-08-22T04:53:30.902Z,16.33
2022-08-22T04:56:15.353Z,16.30
2022-08-22T04:58:55.611Z,16.45
2022-08-22T05:01:53.619Z,16.35
2022-08-22T05:04:43.694Z,16.32
2022-08-22T05:07:15.764Z,16.35
2022-08-22T05:09:46.794Z,16.39
2022-08-22T05:12:20.348Z,16.40
2022-08-22T05:15:01.357Z,16.37
2022-08-22T05:17:31.717Z,16.45
2022-08-22T05:20:03.852Z,16.28
2022-08-22T05:22:36.496Z,16.32
2022-08-22T05:25:09.428Z,16.28
2022-08-22T05:27:40.600Z,16.23
2022-08-22T05:30:09.770Z,16.21
2022-08-22T05:32:49.690Z,16.05
2022-08-22T05:35:19.769Z,16.17
2022-08-22T05:37:49.901Z,16.32
2022-08-22T05:40:21.814Z,16.17
2022-08-22T05:42:48.902Z,16.35
2022-08-22T05:45:18.185Z,16.45
2022-08-22T05:47:55.738Z,16.58
2022-08-22T05:50:50.831Z,16.53
2022-08-22T05:53:26.490Z,16.59
2022-08-22T05:56:22.341Z,16.73
2022-08-22T05:59:00.119Z,16.51
2022-08-22T06:01:33.919Z,16.55
2022-08-22T06:04:20.956Z,16.77
2022-08-22T06:06:56.858Z,16.77
2022-08-22T06:09:38.670Z,16.83
2022-08-22T06:12:21.263Z,16.84
2022-08-22T06:14:54.793Z,16.87
2022-08-22T06:17:34.617Z,17.01
2022-08-22T06:20:02.370Z,16.89
2022-08-22T06:22:34.999Z,17.04
2022-08-22T06:25:12.700Z,16.97
2022-08-22T06:27:39.514Z,17.12
2022-08-22T06:30:07.794Z,17.28
2022-08-22T06:32:58.746Z,17.17
2022-08-22T06:35:59.464Z,17.29
2022-08-22T06:38:34.659Z,17.39
2022-08-22T06:41:06.716Z,17.54
2022-08-22T06:43:43.534Z,17.68
2022-08-22T06:46:12.150Z,17.80
2022-08-22T06:48:38.909Z,17.96
2022-08-22T06:51:08.210Z,18.02
2022-08-22T06:53:42.371Z,18.06
2022-08-22T06:56:23.157Z,18.05
2022-08-22T06:58:52.412Z,18.16
2022-08-22T07:01:23.594Z,18.34
2022-08-22T07:03:53.762Z,18.46
2022-08-22T07:06:31.837Z,18.58
2022-08-22T07:08:58.734Z,18.56
2022-08-22T07:11:36.585Z,18.58
2022-08-22T07:14:14.304Z,18.58
2022-08-22T07:16:49.712Z,18.59
2022-08-22T07:19:35.097Z,18.64
2022-08-22T07:22:13.358Z,18.58
2022-08-22T07:24:47.247Z,18.64
2022-08-22T07:27:31.490Z,18.78
2022-08-22T07:30:06.027Z,18.95
2022-08-22T07:33:23.643Z,19.13
2022-08-22T07:35:53.133Z,19.25
2022-08-22T07:38:28.746Z,19.31
2022-08-22T07:41:15.213Z,19.37
2022-08-22T07:43:50.346Z,19.48
2022-08-22T07:46:22.760Z,19.68
2022-08-22T07:49:21.863Z,19.84
2022-08-22T07:51:55.842Z,19.93
2022-08-22T07:54:37.422Z,20.05
2022-08-22T07:57:12.580Z,20.08
2022-08-22T07:59:47.121Z,20.10
2022-08-22T08:02:17.594Z,20.12
2022-08-22T08:04:45.380Z,20.10
2022-08-22T08:07:15.683Z,20.17
2022-08-22T08:09:48.681Z,20.26
2022-08-22T08:12:17.923Z,20.34
2022-08-22T08:14:50.047Z,20.33
2022-08-22T08:17:32.208Z,20.35
2022-08-22T08:20:03.239Z,20.32
2022-08-22T08:22:31.002Z,20.29
2022-08-22T08:24:59.717Z,20.25
2022-08-22T08:27:50.409Z,20.28
2022-08-22T08:30:21.269Z,20.32
2022-08-22T08:32:51.629Z,20.41
2022-08-22T08:35:28.190Z,20.54
2022-08-22T08:38:12.988Z,20.65
2022-08-22T08:41:08.489Z,20.77
2022-08-22T08:43:56.194Z,21.06
2022-08-22T08:47:02.101Z,21.09
2022-08-22T08:49:43.327Z,21.07
2022-08-22T08:52:40.357Z,21.23
2022-08-22T08:55:27.365Z,21.36
2022-08-22T08:58:27.346Z,21.55
2022-08-22T09:01:02.907Z,21.72
2022-08-22T09:04:28.117Z,21.92
2022-08-22T09:10:16.453Z,22.34
2022-08-22T09:13:21.929Z,22.49
2022-08-22T09:16:22.499Z,22.72
2022-08-22T09:18:55.445Z,22.85
2022-08-22T09:21:53.058Z,22.91
2022-08-22T09:25:13.631Z,23.07
2022-08-22T09:28:01.369Z,23.23
2022-08-22T09:30:48.586Z,23.51
2022-08-22T09:33:29.913Z,23.64
2022-08-22T09:36:05.109Z,23.70
2022-08-22T09:38:53.718Z,23.81
2022-08-22T09:40:15.393Z,22.24
2022-08-22T09:41:41.422Z,23.96
2022-08-22T09:44:24.378Z,24.10
2022-08-22T09:47:05.025Z,24.18
2022-08-22T09:49:39.401Z,24.23
2022-08-22T09:52:31.996Z,24.39
2022-08-22T09:55:15.930Z,24.62
2022-08-22T09:58:03.150Z,24.83
2022-08-22T10:00:47.183Z,24.79
2022-08-22T10:03:30.450Z,24.53
2022-08-22T10:06:03.288Z,24.53
2022-08-22T10:08:40.160Z,24.70
2022-08-22T10:11:18.807Z,24.95
2022-08-22T10:14:01.607Z,25.33
2022-08-22T10:16:42.881Z,25.45
2022-08-22T10:19:20.002Z,25.59
2022-08-22T10:22:20.847Z,25.76
2022-08-22T10:25:07.524Z,25.91
2022-08-22T10:27:39.796Z,25.74
2022-08-22T10:30:18.819Z,25.32
2022-08-22T10:32:48.012Z,25.05
2022-08-22T10:35:29.352Z,25.23
2022-08-22T10:38:12.321Z,25.52
2022-08-22T10:40:50.990Z,25.79
2022-08-22T10:43:29.468Z,26.09
2022-08-22T10:46:12.545Z,26.29
2022-08-22T10:49:05.756Z,26.50
2022-08-22T10:51:49.662Z,26.73
2022-08-22T10:54:38.307Z,26.68
2022-08-22T10:57:27.791Z,26.34
2022-08-22T10:59:58.307Z,26.32
2022-08-22T11:02:36.204Z,26.54
2022-08-22T11:05:27.223Z,26.85
2022-08-22T11:08:16.264Z,27.05
2022-08-22T11:11:06.376Z,27.33
2022-08-22T11:13:47.667Z,27.08
2022-08-22T11:16:46.782Z,26.90
2022-08-22T11:19:24.011Z,26.67
2022-08-22T11:22:19.182Z,26.33
2022-08-22T11:25:36.254Z,25.96
2022-08-22T11:28:28.785Z,26.10
2022-08-22T11:31:07.649Z,26.62
2022-08-22T11:34:03.470Z,26.61
2022-08-22T11:36:54.384Z,26.37
2022-08-22T11:39:32.580Z,26.43
2022-08-22T11:42:29.651Z,26.54
2022-08-22T11:44:59.485Z,26.44
2022-08-22T11:47:36.076Z,26.27
2022-08-22T11:50:21.474Z,26.10
2022-08-22T11:53:14.568Z,25.97
2022-08-22T11:56:20.020Z,26.26
2022-08-22T11:59:41.014Z,26.84
2022-08-22T12:02:19.440Z,27.21
2022-08-22T12:04:59.296Z,27.55
2022-08-22T12:07:32.192Z,27.68
2022-08-22T12:10:15.272Z,27.73
2022-08-22T12:12:54.106Z,27.53
2022-08-22T12:15:33.390Z,27.65
2022-08-22T12:18:21.763Z,27.79
2022-08-22T12:21:09.744Z,27.88
2022-08-22T12:24:00.068Z,28.02
2022-08-22T12:26:46.993Z,28.18
2022-08-22T12:29:40.103Z,28.28
2022-08-22T12:32:27.630Z,28.26
2022-08-22T12:35:29.961Z,28.41
2022-08-22T12:38:30.675Z,28.45
2022-08-22T12:41:35.408Z,28.39
2022-08-22T12:44:23.194Z,28.44
2022-08-22T12:47:23.945Z,28.41
2022-08-22T12:50:18.455Z,28.50
2022-08-22T12:53:27.026Z,28.58
2022-08-22T12:56:03.762Z,28.60
2022-08-22T12:58:56.924Z,28.61
2022-08-22T13:01:33.859Z,28.68
2022-08-22T13:04:05.065Z,28.65
2022-08-22T13:06:37.821Z,28.71
2022-08-22T13:09:19.724Z,28.69
2022-08-22T13:11:52.683Z,28.67
2022-08-22T13:14:25.853Z,28.68
2022-08-22T13:16:57.210Z,28.71
2022-08-22T13:19:28.527Z,28.68
2022-08-22T13:22:10.092Z,28.77
2022-08-22T13:24:52.297Z,28.78
2022-08-22T13:27:51.598Z,28.80
2022-08-22T13:30:37.324Z,28.73
2022-08-22T13:33:14.455Z,28.48
2022-08-22T13:36:12.654Z,28.57
2022-08-22T13:38:54.409Z,28.67
2022-08-22T13:41:27.067Z,28.64
2022-08-22T13:44:05.798Z,28.49
2022-08-22T13:46:35.450Z,28.47
2022-08-22T13:49:07.164Z,28.56
2022-08-22T13:51:45.859Z,28.57
2022-08-22T13:54:16.054Z,28.63
2022-08-22T13:56:56.118Z,28.62
2022-08-22T13:59:51.356Z,28.57
2022-08-22T14:02:34.363Z,28.45
2022-08-22T14:05:06.790Z,28.41
2022-08-22T14:07:38.649Z,28.42
2022-08-22T14:10:23.757Z,28.40
2022-08-22T14:12:56.170Z,28.35
2022-08-22T14:15:32.218Z,28.21
2022-08-22T14:18:10.361Z,28.01
2022-08-22T14:20:39.417Z,27.79
2022-08-22T14:23:29.204Z,27.61
2022-08-22T14:25:57.267Z,27.50
2022-08-22T14:28:30.450Z,27.44
2022-08-22T14:31:08.365Z,27.37
2022-08-22T14:33:40.873Z,27.37
2022-08-22T14:36:18.872Z,27.36
2022-08-22T14:38:52.220Z,27.29
2022-08-22T14:41:56.172Z,27.20
2022-08-22T14:44:25.220Z,27.08
2022-08-22T14:46:56.421Z,27.03
2022-08-22T14:49:48.341Z,26.97
2022-08-22T14:52:29.609Z,26.93
2022-08-22T14:55:10.349Z,26.89
2022-08-22T14:57:41.295Z,26.84
2022-08-22T15:00:13.559Z,26.88
2022-08-22T15:02:41.761Z,26.87
2022-08-22T15:05:19.680Z,26.90
2022-08-22T15:07:55.982Z,26.89
2022-08-22T15:10:32.893Z,26.86
2022-08-22T15:13:07.768Z,26.84
2022-08-22T15:15:49.432Z,26.87
2022-08-22T15:18:26.649Z,26.82
2022-08-22T15:21:08.503Z,26.81
2022-08-22T15:23:45.087Z,26.77
2022-08-22T15:26:39.727Z,26.73
2022-08-22T15:29:20.327Z,26.68
2022-08-22T15:31:51.202Z,26.65
2022-08-22T15:34:30.103Z,26.58
2022-08-22T15:37:25.650Z,26.50
2022-08-22T15:40:11.965Z,26.45
2022-08-22T15:42:47.166Z,26.41
2022-08-22T15:45:33.791Z,26.36
2022-08-22T15:48:04.450Z,26.36
2022-08-22T15:50:38.702Z,26.34
2022-08-22T15:53:30.988Z,26.32
2022-08-22T15:56:05.023Z,26.29
2022-08-22T15:58:37.075Z,26.26
2022-08-22T16:01:19.685Z,26.25
2022-08-22T16:04:01.804Z,26.22
2022-08-22T16:06:53.172Z,26.20
2022-08-22T16:09:42.617Z,26.16
2022-08-22T16:12:25.040Z,26.12
2022-08-22T16:14:51.841Z,26.09
2022-08-22T16:17:30.234Z,26.10
2022-08-22T16:20:09.953Z,26.10
2022-08-22T16:22:55.946Z,26.08
2022-08-22T16:25:44.176Z,26.08
2022-08-22T16:28:54.399Z,26.08
2022-08-22T16:31:18.942Z,26.10
2022-08-22T16:33:46.666Z,26.05
2022-08-22T16:36:43.913Z,26.09
2022-08-22T16:39:22.562Z,26.07
2022-08-22T16:42:10.682Z,26.06
2022-08-22T16:44:42.298Z,26.04
2022-08-22T16:47:17.550Z,26.03
2022-08-22T16:49:49.923Z,26.00
2022-08-22T16:52:25.358Z,25.99
2022-08-22T16:55:04.794Z,25.98
2022-08-22T16:58:06.487Z,25.96
2022-08-22T17:00:36.367Z,25.97
2022-08-22T17:03:24.113Z,25.94
2022-08-22T17:06:02.553Z,25.93
2022-08-22T17:08:56.938Z,25.91
2022-08-22T17:11:45.276Z,25.90
2022-08-22T17:14:27.041Z,25.86
2022-08-22T17:17:17.785Z,25.84
2022-08-22T17:20:01.890Z,25.81
2022-08-22T17:22:58.084Z,25.80
2022-08-22T17:25:49.365Z,25.75
2022-08-22T17:28:34.583Z,25.72
2022-08-22T17:31:13.116Z,25.67
2022-08-22T17:34:29.194Z,25.65
2022-08-22T17:37:01.606Z,25.61
2022-08-22T17:39:39.772Z,25.58
2022-08-22T17:42:38.374Z,25.55
2022-08-22T17:45:33.170Z,25.49
2022-08-22T17:48:12.737Z,25.44
2022-08-22T17:50:57.061Z,25.43
2022-08-22T17:53:49.994Z,25.39
2022-08-22T17:56:28.553Z,25.35
2022-08-22T17:59:05.023Z,25.34
2022-08-22T18:01:42.595Z,25.31
2022-08-22T18:04:25.066Z,25.26
2022-08-22T18:07:28.253Z,25.22
2022-08-22T18:10:04.540Z,25.18
2022-08-22T18:12:44.225Z,25.11
2022-08-22T18:15:21.257Z,25.07
2022-08-22T18:17:56.846Z,25.03
2022-08-22T18:20:41.942Z,24.99
2022-08-22T18:23:35.528Z,24.94
2022-08-22T18:26:44.032Z,24.91
2022-08-22T18:29:15.607Z,24.86
2022-08-22T18:31:53.953Z,24.82
2022-08-22T18:34:29.821Z,24.81
2022-08-22T18:37:03.650Z,24.78
2022-08-22T18:39:43.113Z,24.73
2022-08-22T18:42:21.852Z,24.72
2022-08-22T18:44:48.269Z,24.70
2022-08-22T18:47:20.717Z,24.66
2022-08-22T18:49:54.167Z,24.59
2022-08-22T18:52:26.593Z,24.59
2022-08-22T18:55:06.846Z,24.53
2022-08-22T18:58:03.377Z,24.51
2022-08-22T19:01:08.240Z,24.43
2022-08-22T19:03:41.690Z,24.46
2022-08-22T19:06:32.927Z,24.47
2022-08-22T19:09:25.644Z,24.29
2022-08-22T19:12:10.822Z,24.31
2022-08-22T19:15:03.069Z,24.31
2022-08-22T19:17:58.826Z,24.27
2022-08-22T19:20:50.185Z,24.21
2022-08-22T19:23:40.346Z,24.16
2022-08-22T19:26:23.427Z,24.13
2022-08-22T19:28:52.353Z,24.05
2022-08-22T19:31:24.165Z,24.04
2022-08-22T19:34:13.536Z,23.97
2022-08-22T19:36:40.233Z,23.92
2022-08-22T19:39:31.275Z,23.91
2022-08-22T19:41:59.449Z,23.78
2022-08-22T19:44:35.638Z,23.78
2022-08-22T19:47:12.636Z,23.78
2022-08-22T19:49:43.608Z,23.83
2022-08-22T19:52:19.881Z,23.79
2022-08-22T19:55:03.125Z,23.71
2022-08-22T19:57:57.190Z,23.80
2022-08-22T20:00:29.674Z,23.76
2022-08-22T20:03:37.544Z,23.66
2022-08-22T20:06:05.985Z,23.65
2022-08-22T20:08:37.916Z,23.61
2022-08-22T20:11:12.326Z,23.59
2022-08-22T20:13:39.053Z,23.59
2022-08-22T20:16:21.626Z,23.48
2022-08-22T20:19:07.837Z,23.51
2022-08-22T20:21:58.856Z,23.39
2022-08-22T20:24:30.787Z,23.36
2022-08-22T20:27:15.619Z,23.38
2022-08-22T20:29:49.053Z,23.39
2022-08-22T20:32:19.028Z,23.35
2022-08-22T20:34:47.476Z,23.33
2022-08-22T20:37:32.355Z,23.30
2022-08-22T20:40:55.464Z,23.31
2022-08-22T20:43:35.004Z,23.30
2022-08-22T20:46:23.998Z,23.31
2022-08-22T20:48:53.037Z,23.32
2022-08-22T20:51:24.818Z,23.33
2022-08-22T20:53:53.547Z,23.29
2022-08-22T20:56:52.756Z,23.22
2022-08-22T20:59:28.176Z,23.18
2022-08-22T21:02:16.930Z,23.16
2022-08-22T21:04:52.824Z,23.09
2022-08-22T21:07:32.714Z,23.10
2022-08-22T21:10:25.893Z,23.08
2022-08-22T21:13:08.986Z,23.04
2022-08-22T21:15:43.129Z,23.08
2022-08-22T21:18:12.733Z,23.04
2022-08-22T21:20:39.710Z,23.03
2022-08-22T21:23:13.530Z,23.01
2022-08-22T21:25:57.804Z,22.96
2022-08-22T21:28:27.303Z,22.92
2022-08-22T21:30:53.748Z,22.98
2022-08-22T21:33:24.432Z,22.97
2022-08-22T21:36:00.804Z,22.92
2022-08-22T21:38:27.987Z,22.90
2022-08-22T21:41:01.999Z,22.94
2022-08-22T21:43:36.761Z,22.84
2022-08-22T21:46:05.017Z,22.74
2022-08-22T21:48:37.614Z,22.68
2022-08-22T21:51:24.136Z,22.60
2022-08-22T21:53:53.381Z,22.58
2022-08-22T21:56:37.268Z,22.52
2022-08-22T21:59:50.929Z,22.46
2022-08-22T22:02:36.578Z,22.43
2022-08-22T22:05:13.489Z,22.44
2022-08-22T22:07:42.786Z,22.39
2022-08-22T22:10:12.577Z,22.40
2022-08-22T22:12:41.532Z,22.42
2022-08-22T22:15:12.121Z,22.32
2022-08-22T22:17:38.589Z,22.31
2022-08-22T22:20:06.662Z,22.32
2022-08-22T22:22:33.088Z,22.38
2022-08-22T22:25:03.625Z,22.37
2022-08-22T22:27:30.102Z,22.36
2022-08-22T22:29:56.795Z,22.34
2022-08-22T22:32:23.484Z,22.33
2022-08-22T22:34:49.927Z,22.30
2022-08-22T22:37:16.568Z,22.33
2022-08-22T22:39:43.178Z,22.36
2022-08-22T22:42:09.802Z,22.28
2022-08-22T22:44:36.245Z,22.20
2022-08-22T22:47:02.966Z,22.17
2022-08-22T22:49:31.026Z,22.19
2022-08-22T22:51:58.380Z,22.17
2022-08-22T22:54:27.211Z,22.16
2022-08-22T22:56:54.017Z,22.14
2022-08-22T22:59:24.743Z,22.13
2022-08-22T23:02:10.163Z,22.14
2022-08-22T23:04:52.341Z,22.16
2022-08-22T23:07:19.933Z,22.08
2022-08-22T23:09:46.559Z,22.08
2022-08-22T23:12:14.306Z,22.10
2022-08-22T23:14:40.691Z,22.07
2022-08-22T23:17:07.871Z,21.99
2022-08-22T23:19:34.558Z,21.97
2022-08-22T23:22:01.782Z,21.93
2022-08-22T23:24:31.067Z,22.00
2022-08-22T23:26:57.945Z,21.92
2022-08-22T23:29:24.960Z,21.85
2022-08-22T23:31:57.683Z,21.87
2022-08-22T23:34:29.880Z,21.84
2022-08-22T23:37:00.892Z,21.77
2022-08-22T23:39:29.241Z,21.69
2022-08-22T23:41:56.789Z,21.67
2022-08-22T23:44:27.970Z,21.58
2022-08-22T23:46:55.465Z,21.57
2022-08-22T23:49:21.887Z,21.61
2022-08-22T23:51:49.907Z,21.65
2022-08-22T23:54:17.904Z,21.55
2022-08-22T23:56:47.902Z,21.50
2022-08-22T23:59:20.576Z,21.58
